Flight Track Log - Related Links

Times and Time Zones

All times are in EDT time to prevent confusion due to time zone crossing. See the VRT51 flight status page for this flight to view local times or setup timezone preferences in your user account.

Time Position Orientation Groundspeed Altitude Reporting Facility
EDT Latitude Longitude Course Direction KTS MPH feet Rate Location/Type
Wed 03:24:22 PM 35.8864 -78.7686 28° Northeast 192 221 1,600  Level Washington Center
Wed 03:24:58 PM 35.9161 -78.7492 28° Northeast 190 219 3,400 2,769 Climbing Washington Center
Wed 03:26:06 PM 35.9756 -78.7181 23° Northeast 249 287 6,400 2,837 Climbing Washington Center
Wed 03:27:07 PM 36.0283 -78.7692 322° Northwest 273 314 9,500 2,270 Climbing Washington Center
Wed 03:28:34 PM 36.0833 -78.8972 298° West 312 359 12,000 1,849 Climbing Washington Center
Wed 03:29:33 PM 36.0264 -78.9975 235° Southwest 291 335 14,000 2,924 Climbing Washington Center
Wed 03:30:33 PM 35.9519 -79.1097 231° Southwest 318 366 17,800 3,273 Climbing Washington Center
Wed 03:32:07 PM 35.8550 -79.2708 233° Southwest 376 433 22,400 2,026 Climbing Atlanta Center
Wed 03:33:07 PM 35.8267 -79.4006 255° West 382 440 23,000 300 Climbing Atlanta Center
Wed 03:34:07 PM 35.8175 -79.5419 265° West 394 453 23,000  Level Atlanta Center
Wed 03:35:07 PM 35.7892 -79.6867 256° West 402 463 23,000  Level Atlanta Center
Wed 03:36:07 PM 35.7686 -79.8158 259° West 416 479 23,000  Level Atlanta Center
Wed 03:37:07 PM 35.7442 -79.9578 258° West 416 479 23,000  Level Atlanta Center
Wed 03:38:07 PM 35.7194 -80.0947 258° West 416 479 23,000  Level Atlanta Center
Wed 03:39:07 PM 35.6928 -80.2367 257° West 416 479 23,000  Level Atlanta Center
Wed 03:40:07 PM 35.6661 -80.3936 258° West 421 484 23,000  Level Atlanta Center
Wed 03:41:07 PM 35.6431 -80.5328 259° West 421 484 23,000  Level Atlanta Center
Wed 03:42:07 PM 35.6261 -80.6739 262° West 421 484 23,000  Level Atlanta Center
Wed 03:43:07 PM 35.6072 -80.8178 261° West 421 484 23,000  Level Atlanta Center
Wed 03:44:07 PM 35.5878 -80.9589 260° West 421 484 23,000 -100 Level Atlanta Center
Wed 03:45:07 PM 35.5683 -81.0975 260° West 421 484 22,800 -600 Descending Atlanta Center
Wed 03:46:07 PM 35.5508 -81.2386 261° West 428 493 21,800 -1,500 Descending Atlanta Center
Wed 03:47:07 PM 35.5347 -81.3592 261° West 421 484 19,800 -2,000 Descending Atlanta Center
Wed 03:48:07 PM 35.5167 -81.4922 261° West 405 466 17,800 -2,000 Descending Atlanta Center
Wed 03:49:07 PM 35.4964 -81.6333 260° West 396 456 15,800 -1,400 Descending Atlanta Center
Wed 03:50:07 PM 35.4800 -81.7586 261° West 388 447 15,000 -1,350 Descending Atlanta Center
Wed 03:51:07 PM 35.4614 -81.8817 260° West 376 433 13,100 -1,950 Descending Atlanta Center
Wed 03:52:07 PM 35.4469 -82.0019 262° West 371 427 11,100 -1,050 Descending Atlanta Center
Wed 03:53:07 PM 35.4300 -82.1169 260° West 363 418 11,000 -500 Descending Atlanta Center
Wed 03:54:07 PM 35.4147 -82.2167 259° West 329 379 10,100 -1,450 Descending Atlanta Center
Wed 03:55:07 PM 35.3908 -82.2961 250° West 272 313 8,100 -1,850 Descending Atlanta Center
Wed 03:56:07 PM 35.3247 -82.3358 206° Southwest 245 282 6,400 -1,050 Descending Atlanta Center
Wed 03:57:07 PM 35.2561 -82.3678 201° Southwest 261 300 6,000 -450 Descending Atlanta Center
Wed 03:58:07 PM 35.1964 -82.4172 214° Southwest 254 292 5,500 6,000 Descending Atlanta Center
Wed 03:59:07 PM 35.1344 -82.4617 210° Southwest 254 292 18,000 6,250 Climbing Atlanta Center
Wed 04:00:07 PM 35.0722 -82.5083 212° Southwest 254 292 18,000  Level Atlanta Center

Login

Don't have an account? Register now (free) for customized features, flight alerts, and more!